Flight Track Log - Related Links

Times and Time Zones

All times are in EST time to prevent confusion due to time zone crossing. See the DAL104 flight status page for this flight to view local times or setup timezone preferences in your user account.

Time Position Orientation Groundspeed Altitude Reporting Facility
EST Latitude Longitude Course Direction KTS MPH feet Rate Location/Type
07:04AM 33.6333 -84.4667 270° West 150 173 3,100  Level Atlanta TRACON
07:05AM 33.6333 -84.5333 253° West 221 254 6,500 3,450 Climbing Atlanta TRACON
07:06AM 33.6167 -84.6000 183° South 260 299 10,000 1,728 Climbing Atlanta TRACON
07:07AM 33.5153 -84.6069 161° South 379 436 10,100 336 Climbing Atlanta Center
07:08AM 33.4133 -84.5639 142° Southeast 393 452 10,700 1,950 Climbing Atlanta Center
07:09AM 33.3217 -84.4789 142° Southeast 394 453 14,000 3,250 Climbing Atlanta Center
07:10AM 33.2281 -84.3914 141° Southeast 424 488 17,200 2,850 Climbing Atlanta Center
07:11AM 33.1303 -84.2967 143° Southeast 444 511 19,700 2,550 Climbing Atlanta Center
07:12AM 33.0322 -84.2072 155° Southeast 450 518 22,300 2,400 Climbing Atlanta Center
07:13AM 32.9050 -84.1378 160° South 440 506 24,500 2,050 Climbing Atlanta Center
07:14AM 32.7819 -84.0858 161° South 452 520 26,400 1,950 Climbing Atlanta Center
07:15AM 32.6567 -84.0339 161° South 466 536 28,400 2,100 Climbing Atlanta Center
07:16AM 32.5314 -83.9822 162° South 477 549 30,600 2,100 Climbing Atlanta Center
07:17AM 32.4061 -83.9331 161° South 483 556 32,600 1,200 Climbing Atlanta Center
07:18AM 32.2808 -83.8817 161° South 483 556 33,000 200 Climbing Atlanta Center
07:19AM 32.1556 -83.8303 160° South 483 556 33,000  Level Atlanta Center
07:21AM 31.9842 -83.7572 161° South 481 554 33,000  Level Jacksonville Center
07:22AM 31.8633 -83.7072 162° South 476 548 33,000  Level Jacksonville Center
07:23AM 31.7361 -83.6597 160° South 476 548 33,000  Level Jacksonville Center
07:24AM 31.5986 -83.6025 159° South 470 541 33,000  Level Jacksonville Center
07:25AM 31.4781 -83.5478 149° Southeast 475 547 33,000  Level Jacksonville Center
07:26AM 31.3636 -83.4667 147° Southeast 475 547 33,000  Level Jacksonville Center
07:27AM 31.2531 -83.3836 147° Southeast 470 541 33,000 -150 Level Jacksonville Center
07:28AM 31.1408 -83.2981 148° Southeast 481 554 32,700 -950 Descending Jacksonville Center
07:29AM 31.0242 -83.2125 148° Southeast 486 559 31,100 -1,950 Descending Jacksonville Center
07:30AM 30.9114 -83.1297 149° Southeast 486 559 28,800 -2,000 Descending Jacksonville Center
07:31AM 30.8156 -83.0619 147° Southeast 467 537 27,100 -1,100 Descending Jacksonville Center
07:32AM 30.7092 -82.9819 148° Southeast 461 531 26,600 -1,050 Descending Jacksonville Center
07:33AM 30.5881 -82.8950 147° Southeast 455 524 25,000 -793 Descending Jacksonville Center
07:34AM 30.4942 -82.8250 149° Southeast 455 524 25,000  Level Jacksonville Center
07:35AM 30.3833 -82.7481 148° Southeast 450 518 25,000  Level Jacksonville Center
07:36AM 30.2767 -82.6714 149° Southeast 450 518 25,000  Level Jacksonville Center
07:37AM 30.1575 -82.5875 148° Southeast 450 518 25,000  Level Jacksonville Center
07:38AM 30.0531 -82.5111 149° Southeast 450 518 25,000  Level Jacksonville Center
07:39AM 29.9547 -82.4442 156° South 450 518 25,000 -50 Level Jacksonville Center
07:40AM 29.8417 -82.3872 159° South 443 510 24,900 -694 Descending Jacksonville Center
07:41AM 29.7244 -82.3353 156° South 442 509 23,600 -1,550 Descending Jacksonville Center
07:42AM 29.6075 -82.2764 157° South 454 522 21,800 -1,815 Descending Jacksonville Center
07:43AM 29.4903 -82.2197 158° South 454 522 20,000 -1,750 Descending Jacksonville Center
07:44AM 29.3750 -82.1658 157° South 454 522 18,300 -1,686 Descending Jacksonville Center
07:45AM 29.2642 -82.1119 158° South 449 517 16,600 -1,636 Descending Jacksonville Center
07:46AM 29.1594 -82.0628 158° South 432 497 15,000 -1,600 Descending Jacksonville Center
07:47AM 29.0547 -82.0136 158° South 414 476 13,400 -1,350 Descending Jacksonville Center
07:48AM 28.9583 -81.9694 153° Southeast 402 463 12,300 -1,250 Descending Jacksonville Center
07:49AM 28.8747 -81.9206 123° Southeast 368 423 10,900 -700 Descending Jacksonville Center
07:50AM 28.8194 -81.8239 124° Southeast 341 392 10,900 -100 Level Jacksonville Center
07:51AM 28.7622 -81.7272 124° Southeast 346 398 10,700 -500 Descending Jacksonville Center
07:52AM 28.7072 -81.6333 119° Southeast 341 392 9,900 -857 Descending Jacksonville Center
07:53AM 28.6667 -81.5500 120° Southeast 310 357 9,000 -432 Descending Orlando TRACON
07:54AM 28.6167 -81.4500 156° South 305 351 9,000  Level Orlando TRACON
07:55AM 28.5500 -81.4167 180° South 287 330 9,000 -800 Level Orlando TRACON
07:56AM 28.4667 -81.4167 180° South 282 325 7,400 -2,033 Descending Orlando TRACON
07:57AM 28.3833 -81.4167 150° Southeast 278 320 4,900 -2,150 Descending Orlando TRACON
07:58AM 28.3333 -81.3833 90° East 260 299 3,100 -1,400 Descending Orlando TRACON
07:59AM 28.3333 -81.3167 24° Northeast 201 231 2,100 -1,039 Descending Orlando TRACON
08:00AM 28.3667 -81.3000 360° North 127 146 900 -900 Descending Orlando TRACON
08:01AM 28.4000 -81.3000 360° North 115 132 300 -667 Descending Orlando TRACON

Login

Don't have an account? Register now (free) for customized features, flight alerts, and more!